Time;durP1;ratioP1;P1;durP2;ratioP2;P2;SDS_P1;SDS_P2;PMS_P1;PMS_P2;Temp;Humidity;BMP_temperature;BMP_pressure;BME280_temperature;BME280_humidity;BME280_pressure;Samples;Min_cycle;Max_cycle;Signal;HPM_P1;HPM_P2
2022/02/02 00:32:08;;;;;;;;;;;10.50;99.90;;;;;;4998357;28;19933;-90
2022/02/02 00:34:49;;;;;;;;;;;10.50;99.90;;;;;;4972289;28;19979;-92
2022/02/02 00:37:51;;;;;;;;;;;10.50;99.90;;;;;;4971086;28;19926;-90
2022/02/02 00:59:12;;;;;;;;;;;10.30;99.90;;;;;;5036415;28;19967;-88
2022/02/02 01:03:19;;;;;;;;;;;10.30;99.90;;;;;;5018893;28;19914;-87
2022/02/02 01:41:40;;;;;;;;;;;10.20;99.90;;;;;;4707653;26;19921;-89
2022/02/02 01:44:57;;;;;;;;;;;10.20;99.90;;;;;;5142248;23;19910;-90
2022/02/02 02:10:23;;;;;;;;;;;10.10;99.90;;;;;;4946337;29;19929;-90
2022/02/02 02:16:56;;;;;;;;;;;10.10;99.90;;;;;;4918627;29;19931;-89
2022/02/02 02:19:25;;;;;;;;;;;10.10;99.90;;;;;;4918249;29;19931;-89
2022/02/02 02:21:58;;;;;;;;;;;10.00;99.90;;;;;;4935197;29;19937;-89
2022/02/02 02:24:29;;;;;;;;;;;10.10;99.90;;;;;;4903191;29;19938;-89
2022/02/02 02:27:25;;;;;;;;;;;9.60;99.90;;;;;;4904699;29;19918;-88
2022/02/02 02:30:11;;;;;;;;;;;10.00;99.90;;;;;;4899302;29;19934;-90
2022/02/02 02:36:19;;;;;;;;;;;11.30;99.90;;;;;;4915796;29;19928;-89
2022/02/02 03:56:40;;;;;;;;;;;10.20;99.90;;;;;;4932687;29;19931;-89
2022/02/02 04:02:48;;;;;;;;;;;10.20;99.90;;;;;;4913739;29;19922;-89
2022/02/02 04:05:04;;;;;;;;;;;10.70;99.90;;;;;;4909231;29;19941;-91
2022/02/02 04:07:46;;;;;;;;;;;9.40;99.90;;;;;;4930731;29;19937;-91
2022/02/02 04:10:16;;;;;;;;;;;10.30;99.90;;;;;;4900040;29;19927;-91
2022/02/02 04:16:46;;;;;;;;;;;10.20;99.90;;;;;;4934801;29;19933;-90
2022/02/02 04:54:57;;;;;;;;;;;10.30;99.90;;;;;;4918302;29;20400;-89
2022/02/02 05:09:15;;;;;;;;;;;10.30;99.90;;;;;;4869241;29;19938;-89
2022/02/02 05:17:50;;;;;;;;;;;10.30;99.90;;;;;;4934235;29;19931;-89
2022/02/02 05:41:01;;;;;;;;;;;10.20;99.90;;;;;;4919367;29;19927;-91
2022/02/02 05:51:49;;;;;;;;;;;10.40;99.90;;;;;;4912158;29;19938;-91
2022/02/02 05:54:26;;;;;;;;;;;10.40;99.90;;;;;;4912127;29;19927;-88
2022/02/02 05:56:57;;;;;;;;;;;10.40;99.90;;;;;;4914345;29;19934;-89
2022/02/02 05:59:25;;;;;;;;;;;10.40;99.90;;;;;;4932955;29;19927;-87
2022/02/02 06:01:57;;;;;;;;;;;10.30;99.90;;;;;;4918929;29;19935;-90
2022/02/02 06:04:29;;;;;;;;;;;10.30;99.90;;;;;;4920394;29;19933;-88
2022/02/02 06:07:01;;;;;;;;;;;10.30;99.90;;;;;;4917476;29;19930;-88
2022/02/02 06:09:35;;;;;;;;;;;10.30;99.90;;;;;;4954446;29;19918;-88
2022/02/02 06:12:15;;;;;;;;;;;10.30;99.90;;;;;;4937278;29;19935;-90
2022/02/02 06:14:44;;;;;;;;;;;10.30;99.90;;;;;;4584473;29;9999970;-89
2022/02/02 06:17:14;;;;;;;;;;;10.30;99.90;;;;;;4916073;29;19933;-89
2022/02/02 06:19:45;;;;;;;;;;;10.30;99.90;;;;;;4916336;29;19947;-89
2022/02/02 06:22:29;;;;;;;;;;;10.30;99.90;;;;;;4932400;29;19969;-90
2022/02/02 06:25:04;;;;;;;;;;;10.30;99.90;;;;;;4906296;29;19937;-88
2022/02/02 06:27:41;;;;;;;;;;;10.30;99.90;;;;;;4948956;29;19919;-89
2022/02/02 06:30:14;;;;;;;;;;;10.30;99.90;;;;;;4917974;29;19927;-89
2022/02/02 06:32:50;;;;;;;;;;;10.30;99.90;;;;;;4917306;29;19926;-87
2022/02/02 06:35:21;;;;;;;;;;;10.30;99.90;;;;;;4929800;29;19931;-89
2022/02/02 06:37:50;;;;;;;;;;;10.30;99.90;;;;;;4914695;29;19933;-88
2022/02/02 06:40:23;;;;;;;;;;;10.40;99.90;;;;;;4899168;29;19927;-89
2022/02/02 06:42:54;;;;;;;;;;;10.30;99.90;;;;;;4932337;29;19927;-89
2022/02/02 06:45:24;;;;;;;;;;;10.70;99.90;;;;;;4900573;29;19937;-89
2022/02/02 06:47:55;;;;;;;;;;;10.30;99.90;;;;;;4918755;29;20636;-89
2022/02/02 06:50:29;;;;;;;;;;;10.20;99.90;;;;;;4905709;29;20156;-89
2022/02/02 06:53:12;;;;;;;;;;;10.20;99.90;;;;;;4905098;29;19930;-89
2022/02/02 06:55:48;;;;;;;;;;;11.40;99.90;;;;;;4920760;29;20299;-90
2022/02/02 06:58:37;;;;;;;;;;;10.10;99.90;;;;;;4944652;28;19915;-88
2022/02/02 07:01:28;;;;;;;;;;;10.10;99.90;;;;;;4944254;29;20012;-90
2022/02/02 07:04:23;;;;;;;;;;;10.10;99.90;;;;;;4908306;29;20438;-88
2022/02/02 07:07:07;;;;;;;;;;;10.00;99.90;;;;;;4913955;29;19927;-89
2022/02/02 07:10:06;;;;;;;;;;;10.00;99.90;;;;;;4925841;29;19927;-91
2022/02/02 07:12:47;;;;;;;;;;;10.00;99.90;;;;;;4942324;29;19935;-89
2022/02/02 07:15:29;;;;;;;;;;;9.10;99.90;;;;;;4951441;29;19927;-94
2022/02/02 07:23:30;;;;;;;;;;;10.10;99.90;;;;;;4918635;29;20233;-90
2022/02/02 07:32:13;;;;;;;;;;;10.00;99.90;;;;;;4930443;29;20240;-91
2022/02/02 07:35:03;;;;;;;;;;;10.00;99.90;;;;;;4941094;29;19927;-89
2022/02/02 07:37:36;;;;;;;;;;;9.90;99.90;;;;;;4928549;29;19927;-91
2022/02/02 07:40:15;;;;;;;;;;;9.90;99.90;;;;;;4907825;29;19931;-88
2022/02/02 07:42:46;;;;;;;;;;;9.70;99.90;;;;;;4927883;29;19927;-93
2022/02/02 07:45:14;;;;;;;;;;;9.70;99.90;;;;;;4953872;29;19937;-94
2022/02/02 07:47:45;;;;;;;;;;;9.60;99.90;;;;;;4913008;29;19927;-93
2022/02/02 07:50:34;;;;;;;;;;;9.60;99.90;;;;;;4905116;29;19927;-92
2022/02/02 07:53:11;;;;;;;;;;;9.60;99.90;;;;;;4919048;29;19941;-92
2022/02/02 07:55:47;;;;;;;;;;;9.50;99.90;;;;;;4917366;29;19931;-93
2022/02/02 08:02:13;;;;;;;;;;;9.60;99.90;;;;;;4905497;29;20442;-93
2022/02/02 08:05:04;;;;;;;;;;;9.60;99.90;;;;;;4907530;29;19927;-92
2022/02/02 08:11:03;;;;;;;;;;;9.60;99.90;;;;;;4930496;29;19927;-93
2022/02/02 08:13:55;;;;;;;;;;;9.40;99.90;;;;;;4919735;29;19946;-93
2022/02/02 08:16:38;;;;;;;;;;;7.80;99.90;;;;;;4935488;29;19915;-92
2022/02/02 08:19:41;;;;;;;;;;;9.30;99.90;;;;;;4934948;29;19927;-92
2022/02/02 08:22:10;;;;;;;;;;;9.40;99.90;;;;;;4934361;29;19935;-93
2022/02/02 08:24:41;;;;;;;;;;;9.30;99.90;;;;;;4934262;29;19937;-92
2022/02/02 08:27:27;;;;;;;;;;;11.40;99.90;;;;;;4901892;29;19927;-91
2022/02/02 08:30:00;;;;;;;;;;;8.70;99.90;;;;;;4932584;29;19921;-92
2022/02/02 08:32:33;;;;;;;;;;;7.80;99.90;;;;;;4903169;29;19927;-92
2022/02/02 08:35:04;;;;;;;;;;;9.50;99.90;;;;;;4933311;29;19931;-92
2022/02/02 08:37:47;;;;;;;;;;;8.90;99.90;;;;;;4903683;29;19941;-91
2022/02/02 08:43:37;;;;;;;;;;;9.30;99.90;;;;;;4933268;29;19927;-94
2022/02/02 08:46:40;;;;;;;;;;;9.30;99.90;;;;;;4909895;29;19915;-94
2022/02/02 08:49:19;;;;;;;;;;;8.90;99.90;;;;;;4915591;29;19916;-94
2022/02/02 08:52:13;;;;;;;;;;;9.30;99.90;;;;;;4940054;23;19926;-84
2022/02/02 08:54:56;;;;;;;;;;;9.30;99.90;;;;;;4940716;28;19953;-86
2022/02/02 09:00:10;;;;;;;;;;;9.40;99.90;;;;;;4947993;28;19937;-84
2022/02/02 09:02:53;;;;;;;;;;;9.50;99.90;;;;;;4969774;28;20348;-84
2022/02/02 09:05:31;;;;;;;;;;;9.50;99.90;;;;;;4985002;28;19926;-83
2022/02/02 09:08:16;;;;;;;;;;;9.50;99.90;;;;;;4981630;28;19927;-83
2022/02/02 09:25:37;;;;;;;;;;;11.30;99.90;;;;;;4975267;28;20204;-84
2022/02/02 09:36:18;;;;;;;;;;;9.90;99.90;;;;;;4965272;28;19936;-84
2022/02/02 09:38:55;;;;;;;;;;;9.90;99.90;;;;;;4972335;28;20100;-85
2022/02/02 09:41:40;;;;;;;;;;;10.10;99.90;;;;;;4950931;28;19937;-83
2022/02/02 09:44:11;;;;;;;;;;;10.40;99.90;;;;;;4954979;28;19926;-84
2022/02/02 09:50:10;;;;;;;;;;;10.20;99.90;;;;;;4983272;28;19944;-84
2022/02/02 09:53:07;;;;;;;;;;;10.30;99.90;;;;;;4961642;28;19927;-83
2022/02/02 10:07:24;;;;;;;;;;;10.50;99.90;;;;;;4963719;29;20416;-83
2022/02/02 10:13:17;;;;;;;;;;;10.50;99.90;;;;;;4946438;29;19931;-83
2022/02/02 10:15:57;;;;;;;;;;;10.60;99.90;;;;;;4949475;29;19927;-84
2022/02/02 10:18:29;;;;;;;;;;;10.80;99.90;;;;;;4946786;29;19951;-85
2022/02/02 10:21:00;;;;;;;;;;;10.60;99.90;;;;;;4950674;29;20460;-83
2022/02/02 10:23:31;;;;;;;;;;;10.70;99.90;;;;;;4934818;29;19953;-84
2022/02/02 10:26:13;;;;;;;;;;;10.80;99.90;;;;;;4936549;29;19930;-83
2022/02/02 10:28:44;;;;;;;;;;;10.70;99.90;;;;;;4978257;28;19934;-83
2022/02/02 10:31:12;;;;;;;;;;;10.70;99.90;;;;;;4933887;29;20110;-83
2022/02/02 10:34:09;;;;;;;;;;;9.30;99.90;;;;;;4959017;28;19930;-84
2022/02/02 10:36:38;;;;;;;;;;;11.00;99.90;;;;;;4962049;29;19926;-83
2022/02/02 10:39:09;;;;;;;;;;;11.10;99.90;;;;;;4973532;28;19930;-82
2022/02/02 10:41:52;;;;;;;;;;;11.10;99.90;;;;;;4950483;29;19937;-84
2022/02/02 10:44:37;;;;;;;;;;;13.10;99.90;;;;;;4963143;29;19930;-85
2022/02/02 10:47:36;;;;;;;;;;;11.50;99.90;;;;;;4949701;29;19937;-83
2022/02/02 10:50:23;;;;;;;;;;;11.70;99.90;;;;;;4969010;29;19937;-84
2022/02/02 10:53:25;;;;;;;;;;;12.10;99.90;;;;;;4933214;29;19941;-84
2022/02/02 10:56:16;;;;;;;;;;;11.90;99.90;;;;;;4932379;29;19930;-84
2022/02/02 10:59:26;;;;;;;;;;;12.00;99.90;;;;;;4964410;29;19926;-83
2022/02/02 11:07:44;;;;;;;;;;;12.10;99.90;;;;;;4949185;29;19930;-84
2022/02/02 11:10:51;;;;;;;;;;;12.00;99.90;;;;;;4951081;28;19934;-85
2022/02/02 11:13:23;;;;;;;;;;;10.90;99.90;;;;;;4944347;28;19931;-84
2022/02/02 11:15:56;;;;;;;;;;;12.30;99.90;;;;;;4968915;28;19938;-84
2022/02/02 11:18:32;;;;;;;;;;;12.40;99.90;;;;;;4935108;28;19930;-83
2022/02/02 11:21:07;;;;;;;;;;;12.30;99.90;;;;;;4978951;28;19934;-83
2022/02/02 11:23:43;;;;;;;;;;;12.30;99.90;;;;;;4965571;28;19935;-84
2022/02/02 11:26:13;;;;;;;;;;;12.30;99.90;;;;;;4981677;28;19927;-84
2022/02/02 11:28:47;;;;;;;;;;;11.10;99.90;;;;;;4967667;28;19930;-85
2022/02/02 11:31:22;;;;;;;;;;;12.10;99.90;;;;;;4946957;28;19930;-83
2022/02/02 11:33:56;;;;;;;;;;;12.00;99.90;;;;;;4981345;28;19935;-84
2022/02/02 11:36:52;;;;;;;;;;;11.90;99.90;;;;;;4950765;28;19938;-84
2022/02/02 11:39:34;;;;;;;;;;;12.20;99.90;;;;;;4947539;28;19927;-84
2022/02/02 11:42:16;;;;;;;;;;;12.00;99.90;;;;;;4980396;28;19935;-83
2022/02/02 11:45:05;;;;;;;;;;;12.00;99.90;;;;;;4932212;28;19941;-82
2022/02/02 11:48:07;;;;;;;;;;;12.10;99.90;;;;;;4963111;28;19926;-84
2022/02/02 11:50:56;;;;;;;;;;;11.00;99.90;;;;;;4949661;28;19930;-83
2022/02/02 11:53:45;;;;;;;;;;;12.30;99.90;;;;;;4969134;28;19933;-84
2022/02/02 11:56:14;;;;;;;;;;;12.40;99.90;;;;;;4966747;28;19934;-83
2022/02/02 11:58:44;;;;;;;;;;;12.70;99.90;;;;;;4933941;28;19930;-84
2022/02/02 12:01:19;;;;;;;;;;;12.80;99.90;;;;;;4963774;28;19935;-84
2022/02/02 12:09:10;;;;;;;;;;;12.70;99.90;;;;;;4965037;28;19946;-84
2022/02/02 12:47:22;;;;;;;;;;;12.70;99.90;;;;;;4967081;28;20326;-82
2022/02/02 12:58:24;;;;;;;;;;;12.90;99.90;;;;;;4964821;28;19927;-83
2022/02/02 13:03:42;;;;;;;;;;;13.00;99.90;;;;;;4963506;28;19930;-84
2022/02/02 13:06:15;;;;;;;;;;;12.90;99.90;;;;;;4965409;28;19926;-84
2022/02/02 13:08:46;;;;;;;;;;;12.90;99.90;;;;;;4979664;28;19926;-84
2022/02/02 13:14:41;;;;;;;;;;;13.00;99.90;;;;;;4968469;28;19926;-84
2022/02/02 13:17:14;;;;;;;;;;;12.90;99.90;;;;;;4964698;28;19934;-83
2022/02/02 13:19:44;;;;;;;;;;;12.90;99.90;;;;;;4982663;28;19944;-86
2022/02/02 13:22:17;;;;;;;;;;;12.90;99.90;;;;;;4968573;28;19942;-84
2022/02/02 13:24:48;;;;;;;;;;;12.90;99.90;;;;;;4968708;28;20390;-84
2022/02/02 13:27:21;;;;;;;;;;;13.00;99.90;;;;;;4983814;28;19932;-85
2022/02/02 13:30:18;;;;;;;;;;;13.00;99.90;;;;;;4949609;29;19940;-85
2022/02/02 13:33:08;;;;;;;;;;;13.00;99.90;;;;;;4948246;29;19927;-83
2022/02/02 13:35:39;;;;;;;;;;;13.20;99.90;;;;;;4961225;28;19937;-83
2022/02/02 13:38:17;;;;;;;;;;;13.10;99.90;;;;;;4959073;29;20301;-85
2022/02/02 13:44:04;;;;;;;;;;;13.30;99.90;;;;;;4965793;28;19930;-86
2022/02/02 13:47:01;;;;;;;;;;;13.10;99.90;;;;;;4959199;29;19926;-83
2022/02/02 13:50:13;;;;;;;;;;;13.30;99.90;;;;;;4950892;29;19931;-84
2022/02/02 13:53:10;;;;;;;;;;;13.00;99.90;;;;;;4967775;28;19926;-83
2022/02/02 13:55:49;;;;;;;;;;;13.00;99.90;;;;;;4967254;28;19926;-82
2022/02/02 13:58:42;;;;;;;;;;;13.10;99.90;;;;;;4967882;29;20287;-82
2022/02/02 14:01:26;;;;;;;;;;;14.80;99.90;;;;;;4963159;28;20397;-83
2022/02/02 14:10:24;;;;;;;;;;;13.00;99.90;;;;;;4964724;28;19927;-83
2022/02/02 14:33:49;;;;;;;;;;;12.80;99.90;;;;;;4972314;28;19933;-83
2022/02/02 14:36:21;;;;;;;;;;;12.90;99.90;;;;;;4937389;29;20299;-84
2022/02/02 14:38:59;;;;;;;;;;;13.00;99.90;;;;;;4949261;29;19934;-84
2022/02/02 14:44:14;;;;;;;;;;;12.80;99.90;;;;;;4964868;28;19933;-83
2022/02/02 14:47:05;;;;;;;;;;;12.80;99.90;;;;;;4961083;29;19930;-84
2022/02/02 14:50:01;;;;;;;;;;;12.70;99.90;;;;;;4966528;29;19931;-84
2022/02/02 14:52:45;;;;;;;;;;;11.20;99.90;;;;;;4953048;29;19930;-83
2022/02/02 15:28:48;;;;;;;;;;;12.80;99.90;;;;;;4969133;28;19935;-84
2022/02/02 15:31:18;;;;;;;;;;;12.90;99.90;;;;;;4955992;28;19949;-83
2022/02/02 15:33:59;;;;;;;;;;;12.70;99.90;;;;;;4970467;28;19953;-86
2022/02/02 15:39:29;;;;;;;;;;;12.80;99.90;;;;;;4972493;28;19930;-86
2022/02/02 15:42:18;;;;;;;;;;;12.70;99.90;;;;;;4967355;28;19934;-85
2022/02/02 15:58:05;;;;;;;;;;;14.00;99.90;;;;;;4947126;29;19941;-89
2022/02/02 15:59:08;;;;;;;;;;;12.80;99.90;;;;;;4927148;29;19935;-87
2022/02/02 16:02:07;;;;;;;;;;;11.90;99.90;;;;;;4947374;29;19930;-85
2022/02/02 16:04:33;;;;;;;;;;;12.50;99.90;;;;;;4927911;29;19935;-85
2022/02/02 16:07:04;;;;;;;;;;;12.30;99.90;;;;;;4947209;28;19937;-83
2022/02/02 16:09:49;;;;;;;;;;;12.20;99.90;;;;;;4931345;29;19942;-86
2022/02/02 16:12:30;;;;;;;;;;;12.20;99.90;;;;;;4932174;29;19935;-83
2022/02/02 16:32:12;;;;;;;;;;;11.80;99.90;;;;;;4949812;29;19916;-86
2022/02/02 16:38:40;;;;;;;;;;;11.70;99.90;;;;;;4951380;29;19931;-85
2022/02/02 16:45:05;;;;;;;;;;;11.60;99.90;;;;;;4933894;29;19923;-83
2022/02/02 16:47:37;;;;;;;;;;;11.50;99.90;;;;;;4950269;29;19935;-84
2022/02/02 16:50:16;;;;;;;;;;;12.00;99.90;;;;;;4938964;29;19936;-87
2022/02/02 16:52:49;;;;;;;;;;;11.70;99.90;;;;;;4940822;28;19937;-84
2022/02/02 16:55:47;;;;;;;;;;;11.40;99.90;;;;;;4978737;28;19941;-84
2022/02/02 17:29:43;;;;;;;;;;;10.90;99.90;;;;;;4971009;28;19930;-87
2022/02/02 18:19:15;;;;;;;;;;;9.00;99.90;;;;;;4957733;28;19956;-85
2022/02/02 18:21:46;;;;;;;;;;;9.70;99.90;;;;;;4934971;28;19934;-84
2022/02/02 18:24:24;;;;;;;;;;;9.60;99.90;;;;;;4960132;29;19930;-86
2022/02/02 18:27:10;;;;;;;;;;;9.70;99.90;;;;;;4933983;29;19927;-85
2022/02/02 18:30:47;;;;;;;;;;;10.00;99.90;;;;;;4948789;28;19961;-84
2022/02/02 18:33:29;;;;;;;;;;;9.40;99.90;;;;;;4952922;28;19942;-87
2022/02/02 18:53:53;;;;;;;;;;;9.30;99.90;;;;;;4960804;28;19926;-86
2022/02/02 18:56:51;;;;;;;;;;;9.40;99.90;;;;;;4924077;29;19941;-86
2022/02/02 19:38:45;;;;;;;;;;;9.40;99.90;;;;;;4929965;29;19942;-85
2022/02/02 19:55:38;;;;;;;;;;;8.80;99.90;;;;;;4969032;28;20103;-86
2022/02/02 20:04:06;;;;;;;;;;;9.90;99.90;;;;;;4964388;28;19931;-84
2022/02/02 20:11:32;;;;;;;;;;;10.10;99.90;;;;;;4958285;28;19930;-85
2022/02/02 20:14:01;;;;;;;;;;;10.10;99.90;;;;;;4964310;28;19930;-85
2022/02/02 20:16:29;;;;;;;;;;;10.30;99.90;;;;;;4964215;28;19938;-88
2022/02/02 20:19:10;;;;;;;;;;;10.10;99.90;;;;;;4967786;28;19927;-84
2022/02/02 20:21:49;;;;;;;;;;;10.20;99.90;;;;;;4962472;28;19934;-86
2022/02/02 20:24:27;;;;;;;;;;;10.20;99.90;;;;;;4963930;28;19933;-86
2022/02/02 20:26:55;;;;;;;;;;;11.70;99.90;;;;;;4962242;28;19930;-85
2022/02/02 20:29:25;;;;;;;;;;;10.60;99.90;;;;;;4968679;28;19930;-83
2022/02/02 20:31:54;;;;;;;;;;;10.30;99.90;;;;;;4965061;28;19946;-88
2022/02/02 20:34:26;;;;;;;;;;;10.20;99.90;;;;;;4965376;28;21400;-84
2022/02/02 20:36:59;;;;;;;;;;;10.30;99.90;;;;;;4966681;28;20275;-83
2022/02/02 20:40:14;;;;;;;;;;;10.30;99.90;;;;;;4948411;28;19958;-83
2022/02/02 20:42:36;;;;;;;;;;;10.20;99.90;;;;;;4953826;28;20010;-85
2022/02/02 20:46:04;;;;;;;;;;;10.30;99.90;;;;;;4979818;28;21462;-84
2022/02/02 21:10:35;;;;;;;;;;;10.30;99.90;;;;;;4966511;28;19934;-84
2022/02/02 21:16:05;;;;;;;;;;;10.30;99.90;;;;;;4967808;28;19942;-85
2022/02/02 21:18:41;;;;;;;;;;;10.70;99.90;;;;;;4974899;28;19945;-84
2022/02/02 21:21:22;;;;;;;;;;;10.30;99.90;;;;;;4983956;28;19926;-86
2022/02/02 21:29:13;;;;;;;;;;;10.30;99.90;;;;;;4972809;28;19926;-84
2022/02/02 21:31:43;;;;;;;;;;;10.20;99.90;;;;;;4972614;28;19937;-87
2022/02/02 21:34:14;;;;;;;;;;;10.40;99.90;;;;;;4971358;28;19926;-88
2022/02/02 21:36:47;;;;;;;;;;;8.80;99.90;;;;;;4977797;28;19930;-83
2022/02/02 21:39:24;;;;;;;;;;;10.30;99.90;;;;;;4970426;28;19930;-88
2022/02/02 21:42:01;;;;;;;;;;;10.50;99.90;;;;;;4967797;28;20031;-84
2022/02/02 21:44:38;;;;;;;;;;;10.30;99.90;;;;;;4967615;28;19940;-85
2022/02/02 21:47:10;;;;;;;;;;;10.20;99.90;;;;;;4983471;28;19934;-83
2022/02/02 21:49:42;;;;;;;;;;;10.30;99.90;;;;;;4953714;28;19933;-83
2022/02/02 21:52:14;;;;;;;;;;;10.30;99.90;;;;;;4982016;28;19934;-84
2022/02/02 21:54:45;;;;;;;;;;;11.00;99.90;;;;;;4967575;28;20082;-84
2022/02/02 21:57:13;;;;;;;;;;;10.20;99.90;;;;;;4976174;28;19957;-83
2022/02/02 21:59:42;;;;;;;;;;;8.90;99.90;;;;;;4950929;29;19950;-84
2022/02/02 22:02:13;;;;;;;;;;;10.30;99.90;;;;;;4961673;29;20301;-84
2022/02/02 22:04:46;;;;;;;;;;;8.80;99.90;;;;;;4998187;28;19930;-84
2022/02/02 22:07:15;;;;;;;;;;;10.30;99.90;;;;;;4968871;28;19931;-83
2022/02/02 22:09:51;;;;;;;;;;;10.40;99.90;;;;;;4971347;28;19934;-86
2022/02/02 22:12:20;;;;;;;;;;;10.40;99.90;;;;;;4967679;29;19953;-84
2022/02/02 22:14:54;;;;;;;;;;;10.40;99.90;;;;;;4968547;28;19927;-85
2022/02/02 22:17:28;;;;;;;;;;;9.90;99.90;;;;;;4976797;28;19930;-83
2022/02/02 22:19:58;;;;;;;;;;;10.40;99.90;;;;;;4967820;29;19934;-84
2022/02/02 22:22:42;;;;;;;;;;;10.30;99.90;;;;;;4965242;29;19926;-84
2022/02/02 22:25:18;;;;;;;;;;;9.90;99.90;;;;;;4950666;29;19957;-85
2022/02/02 22:28:01;;;;;;;;;;;10.10;99.90;;;;;;4966695;28;19926;-83
2022/02/02 22:30:29;;;;;;;;;;;10.30;99.90;;;;;;4968688;29;19934;-85
2022/02/02 22:33:07;;;;;;;;;;;10.20;99.90;;;;;;4952710;29;19930;-86
2022/02/02 22:35:39;;;;;;;;;;;10.20;99.90;;;;;;4952090;29;19937;-85
2022/02/02 22:38:13;;;;;;;;;;;10.40;99.90;;;;;;4957427;28;19938;-84
2022/02/02 22:40:58;;;;;;;;;;;10.20;99.90;;;;;;4968007;29;19949;-84
2022/02/02 22:44:00;;;;;;;;;;;10.10;99.90;;;;;;4948297;29;19931;-84
2022/02/02 22:46:31;;;;;;;;;;;10.40;99.90;;;;;;4965622;28;19934;-84
2022/02/02 22:49:11;;;;;;;;;;;10.10;99.90;;;;;;4952279;29;19931;-84
2022/02/02 22:51:52;;;;;;;;;;;10.20;99.90;;;;;;4956747;28;19937;-83
2022/02/02 22:54:51;;;;;;;;;;;10.30;99.90;;;;;;4919346;29;19953;-84
2022/02/02 22:57:28;;;;;;;;;;;11.80;99.90;;;;;;4948581;29;19926;-84
2022/02/02 23:00:18;;;;;;;;;;;9.70;99.90;;;;;;4960486;28;19938;-85
2022/02/02 23:03:11;;;;;;;;;;;10.20;99.90;;;;;;4948756;28;19926;-85
2022/02/02 23:05:46;;;;;;;;;;;10.00;99.90;;;;;;4950380;29;19930;-83
2022/02/02 23:08:20;;;;;;;;;;;10.00;99.90;;;;;;4938496;29;19938;-83
2022/02/02 23:10:50;;;;;;;;;;;10.00;99.90;;;;;;4934954;29;19927;-83
2022/02/02 23:13:19;;;;;;;;;;;10.00;99.90;;;;;;4952320;29;19945;-84
2022/02/02 23:15:57;;;;;;;;;;;9.60;99.90;;;;;;4969696;28;19931;-84
2022/02/02 23:18:28;;;;;;;;;;;9.80;99.90;;;;;;4938657;29;20597;-82
2022/02/02 23:21:02;;;;;;;;;;;10.00;99.90;;;;;;4920382;29;19939;-83
2022/02/02 23:23:37;;;;;;;;;;;10.00;99.90;;;;;;4951958;29;19973;-84
2022/02/02 23:26:06;;;;;;;;;;;10.00;99.90;;;;;;4946479;29;19930;-85
2022/02/02 23:28:47;;;;;;;;;;;10.10;99.90;;;;;;4932091;29;19934;-83
2022/02/02 23:31:33;;;;;;;;;;;10.10;99.90;;;;;;4947334;29;19937;-85
2022/02/02 23:34:03;;;;;;;;;;;10.10;99.90;;;;;;4918598;29;19937;-84
2022/02/02 23:36:32;;;;;;;;;;;10.00;99.90;;;;;;4951321;29;20288;-84
2022/02/02 23:39:01;;;;;;;;;;;9.90;99.90;;;;;;4933204;29;19939;-85
2022/02/02 23:42:09;;;;;;;;;;;10.00;99.90;;;;;;4933522;29;19938;-84
2022/02/02 23:44:35;;;;;;;;;;;9.90;99.90;;;;;;4931588;29;19931;-84
2022/02/02 23:47:07;;;;;;;;;;;9.90;99.90;;;;;;4931016;29;19927;-83
2022/02/02 23:49:44;;;;;;;;;;;10.00;99.90;;;;;;4931561;29;20388;-86
2022/02/02 23:52:13;;;;;;;;;;;9.90;99.90;;;;;;4915915;29;19937;-83
2022/02/02 23:54:45;;;;;;;;;;;10.00;99.90;;;;;;4926555;29;19956;-83
2022/02/02 23:57:32;;;;;;;;;;;10.00;99.90;;;;;;4927968;29;19931;-85
